sensor_id;sensor_type;location;lat;lon;timestamp;temperature;humidity
22629;DHT22;11481;53.694;9.910;2023-05-27T00:01:11;12.30;99.90
22629;DHT22;11481;53.694;9.910;2023-05-27T00:03:39;12.50;99.90
22629;DHT22;11481;53.694;9.910;2023-05-27T00:06:07;12.60;99.90
22629;DHT22;11481;53.694;9.910;2023-05-27T00:08:33;12.70;99.90
22629;DHT22;11481;53.694;9.910;2023-05-27T00:11:00;12.80;99.90
22629;DHT22;11481;53.694;9.910;2023-05-27T00:13:27;12.80;99.90
22629;DHT22;11481;53.694;9.910;2023-05-27T00:15:54;12.70;99.90
22629;DHT22;11481;53.694;9.910;2023-05-27T00:18:23;12.60;99.90
22629;DHT22;11481;53.694;9.910;2023-05-27T00:20:49;12.50;99.90
22629;DHT22;11481;53.694;9.910;2023-05-27T00:23:16;12.60;99.90
22629;DHT22;11481;53.694;9.910;2023-05-27T00:25:43;12.60;99.90
22629;DHT22;11481;53.694;9.910;2023-05-27T00:28:10;12.60;99.90
22629;DHT22;11481;53.694;9.910;2023-05-27T00:30:37;12.50;99.90
22629;DHT22;11481;53.694;9.910;2023-05-27T00:33:03;12.50;99.90
22629;DHT22;11481;53.694;9.910;2023-05-27T00:35:30;12.30;99.90
22629;DHT22;11481;53.694;9.910;2023-05-27T00:37:57;12.30;99.90
22629;DHT22;11481;53.694;9.910;2023-05-27T00:40:25;12.30;99.90
22629;DHT22;11481;53.694;9.910;2023-05-27T00:42:52;12.10;99.90
22629;DHT22;11481;53.694;9.910;2023-05-27T00:45:19;12.00;99.90
22629;DHT22;11481;53.694;9.910;2023-05-27T00:47:46;11.90;99.90
22629;DHT22;11481;53.694;9.910;2023-05-27T00:50:12;11.90;99.90
22629;DHT22;11481;53.694;9.910;2023-05-27T00:52:39;11.60;99.90
22629;DHT22;11481;53.694;9.910;2023-05-27T00:55:06;11.60;99.90
22629;DHT22;11481;53.694;9.910;2023-05-27T00:57:34;11.60;99.90
22629;DHT22;11481;53.694;9.910;2023-05-27T01:00:01;11.70;99.90
22629;DHT22;11481;53.694;9.910;2023-05-27T01:02:28;11.80;99.90
22629;DHT22;11481;53.694;9.910;2023-05-27T01:04:55;11.70;99.90
22629;DHT22;11481;53.694;9.910;2023-05-27T01:07:29;11.60;99.90
22629;DHT22;11481;53.694;9.910;2023-05-27T01:10:10;11.40;99.90
22629;DHT22;11481;53.694;9.910;2023-05-27T01:12:47;11.30;99.90
22629;DHT22;11481;53.694;9.910;2023-05-27T01:15:15;11.30;99.90
22629;DHT22;11481;53.694;9.910;2023-05-27T01:17:42;11.30;99.90
22629;DHT22;11481;53.694;9.910;2023-05-27T01:20:12;11.20;99.90
22629;DHT22;11481;53.694;9.910;2023-05-27T01:22:42;11.20;99.90
22629;DHT22;11481;53.694;9.910;2023-05-27T01:25:10;11.10;99.90
22629;DHT22;11481;53.694;9.910;2023-05-27T01:27:37;11.20;99.90
22629;DHT22;11481;53.694;9.910;2023-05-27T01:30:07;11.30;99.90
22629;DHT22;11481;53.694;9.910;2023-05-27T01:35:22;11.30;99.90
22629;DHT22;11481;53.694;9.910;2023-05-27T01:37:52;11.30;99.90
22629;DHT22;11481;53.694;9.910;2023-05-27T01:40:19;11.40;99.90
22629;DHT22;11481;53.694;9.910;2023-05-27T01:42:47;11.40;99.90
22629;DHT22;11481;53.694;9.910;2023-05-27T01:45:14;11.40;99.90
22629;DHT22;11481;53.694;9.910;2023-05-27T01:47:43;11.40;99.90
22629;DHT22;11481;53.694;9.910;2023-05-27T01:50:11;11.50;99.90
22629;DHT22;11481;53.694;9.910;2023-05-27T01:52:38;11.50;99.90
22629;DHT22;11481;53.694;9.910;2023-05-27T01:55:05;11.40;99.90
22629;DHT22;11481;53.694;9.910;2023-05-27T01:57:32;11.10;99.90
22629;DHT22;11481;53.694;9.910;2023-05-27T01:59:58;10.90;99.90
22629;DHT22;11481;53.694;9.910;2023-05-27T02:02:25;10.80;99.90
22629;DHT22;11481;53.694;9.910;2023-05-27T02:04:52;10.80;99.90
22629;DHT22;11481;53.694;9.910;2023-05-27T02:07:18;10.90;99.90
22629;DHT22;11481;53.694;9.910;2023-05-27T02:09:45;10.90;99.90
22629;DHT22;11481;53.694;9.910;2023-05-27T02:12:12;10.80;99.90
22629;DHT22;11481;53.694;9.910;2023-05-27T02:14:39;10.50;99.90
22629;DHT22;11481;53.694;9.910;2023-05-27T02:17:07;10.20;99.90
22629;DHT22;11481;53.694;9.910;2023-05-27T02:19:34;10.20;99.90
22629;DHT22;11481;53.694;9.910;2023-05-27T02:22:01;10.10;99.90
22629;DHT22;11481;53.694;9.910;2023-05-27T02:24:28;10.20;99.90
22629;DHT22;11481;53.694;9.910;2023-05-27T02:26:55;10.40;99.90
22629;DHT22;11481;53.694;9.910;2023-05-27T02:29:21;10.40;99.90
22629;DHT22;11481;53.694;9.910;2023-05-27T02:31:48;10.50;99.90
22629;DHT22;11481;53.694;9.910;2023-05-27T02:34:15;10.50;99.90
22629;DHT22;11481;53.694;9.910;2023-05-27T02:36:42;10.50;99.90
22629;DHT22;11481;53.694;9.910;2023-05-27T02:39:09;10.30;99.90
22629;DHT22;11481;53.694;9.910;2023-05-27T02:41:36;10.20;99.90
22629;DHT22;11481;53.694;9.910;2023-05-27T02:44:05;10.20;99.90
22629;DHT22;11481;53.694;9.910;2023-05-27T02:46:32;10.00;99.90
22629;DHT22;11481;53.694;9.910;2023-05-27T02:48:58;9.90;99.90
22629;DHT22;11481;53.694;9.910;2023-05-27T02:51:25;9.80;99.90
22629;DHT22;11481;53.694;9.910;2023-05-27T02:53:52;9.70;99.90
22629;DHT22;11481;53.694;9.910;2023-05-27T02:56:18;9.70;99.90
22629;DHT22;11481;53.694;9.910;2023-05-27T02:58:45;9.70;99.90
22629;DHT22;11481;53.694;9.910;2023-05-27T03:01:12;9.80;99.90
22629;DHT22;11481;53.694;9.910;2023-05-27T03:03:38;9.70;99.90
22629;DHT22;11481;53.694;9.910;2023-05-27T03:06:05;9.60;99.90
22629;DHT22;11481;53.694;9.910;2023-05-27T03:08:32;9.60;99.90
22629;DHT22;11481;53.694;9.910;2023-05-27T03:10:59;9.70;99.90
22629;DHT22;11481;53.694;9.910;2023-05-27T03:13:25;9.70;99.90
22629;DHT22;11481;53.694;9.910;2023-05-27T03:15:52;9.70;99.90
22629;DHT22;11481;53.694;9.910;2023-05-27T03:18:21;9.70;99.90
22629;DHT22;11481;53.694;9.910;2023-05-27T03:20:47;9.70;99.90
22629;DHT22;11481;53.694;9.910;2023-05-27T03:23:15;9.80;99.90
22629;DHT22;11481;53.694;9.910;2023-05-27T03:25:41;9.80;99.90
22629;DHT22;11481;53.694;9.910;2023-05-27T03:28:08;9.80;99.90
22629;DHT22;11481;53.694;9.910;2023-05-27T03:30:35;9.80;99.90
22629;DHT22;11481;53.694;9.910;2023-05-27T03:33:02;9.80;99.90
22629;DHT22;11481;53.694;9.910;2023-05-27T03:35:29;9.80;99.90
22629;DHT22;11481;53.694;9.910;2023-05-27T03:37:55;9.70;99.90
22629;DHT22;11481;53.694;9.910;2023-05-27T03:40:22;9.70;99.90
22629;DHT22;11481;53.694;9.910;2023-05-27T03:42:49;9.70;99.90
22629;DHT22;11481;53.694;9.910;2023-05-27T03:45:15;9.70;99.90
22629;DHT22;11481;53.694;9.910;2023-05-27T03:47:42;9.70;99.90
22629;DHT22;11481;53.694;9.910;2023-05-27T03:50:10;9.60;99.90
22629;DHT22;11481;53.694;9.910;2023-05-27T03:52:36;9.60;99.90
22629;DHT22;11481;53.694;9.910;2023-05-27T03:55:03;9.70;99.90
22629;DHT22;11481;53.694;9.910;2023-05-27T03:57:30;9.80;99.90
22629;DHT22;11481;53.694;9.910;2023-05-27T03:59:57;9.80;99.90
22629;DHT22;11481;53.694;9.910;2023-05-27T04:02:23;9.70;99.90
22629;DHT22;11481;53.694;9.910;2023-05-27T04:04:50;9.60;99.90
22629;DHT22;11481;53.694;9.910;2023-05-27T04:07:19;9.70;99.90
22629;DHT22;11481;53.694;9.910;2023-05-27T04:09:46;9.70;99.90
22629;DHT22;11481;53.694;9.910;2023-05-27T04:12:13;9.60;99.90
22629;DHT22;11481;53.694;9.910;2023-05-27T04:14:40;9.60;99.90
22629;DHT22;11481;53.694;9.910;2023-05-27T04:17:06;9.60;99.90
22629;DHT22;11481;53.694;9.910;2023-05-27T04:19:33;9.50;99.90
22629;DHT22;11481;53.694;9.910;2023-05-27T04:22:00;9.50;99.90
22629;DHT22;11481;53.694;9.910;2023-05-27T04:24:27;9.50;99.90
22629;DHT22;11481;53.694;9.910;2023-05-27T04:26:54;9.60;99.90
22629;DHT22;11481;53.694;9.910;2023-05-27T04:29:20;9.60;99.90
22629;DHT22;11481;53.694;9.910;2023-05-27T04:31:48;9.60;99.90
22629;DHT22;11481;53.694;9.910;2023-05-27T04:34:15;9.70;99.90
22629;DHT22;11481;53.694;9.910;2023-05-27T04:36:42;9.70;99.90
22629;DHT22;11481;53.694;9.910;2023-05-27T04:39:10;9.80;99.90
22629;DHT22;11481;53.694;9.910;2023-05-27T04:41:38;9.80;99.90
22629;DHT22;11481;53.694;9.910;2023-05-27T04:44:06;9.80;99.90
22629;DHT22;11481;53.694;9.910;2023-05-27T04:46:33;9.80;99.90
22629;DHT22;11481;53.694;9.910;2023-05-27T04:49:00;9.90;99.90
22629;DHT22;11481;53.694;9.910;2023-05-27T04:51:26;9.90;99.90
22629;DHT22;11481;53.694;9.910;2023-05-27T04:53:53;9.90;99.90
22629;DHT22;11481;53.694;9.910;2023-05-27T04:56:20;10.00;99.90
22629;DHT22;11481;53.694;9.910;2023-05-27T04:58:48;10.00;99.90
22629;DHT22;11481;53.694;9.910;2023-05-27T05:01:15;10.10;99.90
22629;DHT22;11481;53.694;9.910;2023-05-27T05:03:47;10.10;99.90
22629;DHT22;11481;53.694;9.910;2023-05-27T05:06:20;10.10;99.90
22629;DHT22;11481;53.694;9.910;2023-05-27T05:08:48;10.10;99.90
22629;DHT22;11481;53.694;9.910;2023-05-27T05:11:15;10.10;99.90
22629;DHT22;11481;53.694;9.910;2023-05-27T05:13:42;10.00;99.90
22629;DHT22;11481;53.694;9.910;2023-05-27T05:16:09;10.00;99.90
22629;DHT22;11481;53.694;9.910;2023-05-27T05:18:35;10.00;99.90
22629;DHT22;11481;53.694;9.910;2023-05-27T05:21:02;9.90;99.90
22629;DHT22;11481;53.694;9.910;2023-05-27T05:23:30;10.00;99.90
22629;DHT22;11481;53.694;9.910;2023-05-27T05:25:56;10.00;99.90
22629;DHT22;11481;53.694;9.910;2023-05-27T05:28:25;10.00;99.90
22629;DHT22;11481;53.694;9.910;2023-05-27T05:30:55;10.00;99.90
22629;DHT22;11481;53.694;9.910;2023-05-27T05:33:22;10.10;99.90
22629;DHT22;11481;53.694;9.910;2023-05-27T05:35:49;10.20;99.90
22629;DHT22;11481;53.694;9.910;2023-05-27T05:38:16;10.30;99.90
22629;DHT22;11481;53.694;9.910;2023-05-27T05:40:43;10.40;99.90
22629;DHT22;11481;53.694;9.910;2023-05-27T05:43:15;10.50;99.90
22629;DHT22;11481;53.694;9.910;2023-05-27T05:45:42;10.50;99.90
22629;DHT22;11481;53.694;9.910;2023-05-27T05:48:10;10.50;99.90
22629;DHT22;11481;53.694;9.910;2023-05-27T05:50:37;10.50;99.90
22629;DHT22;11481;53.694;9.910;2023-05-27T05:53:04;10.60;99.90
22629;DHT22;11481;53.694;9.910;2023-05-27T05:55:31;10.70;99.90
22629;DHT22;11481;53.694;9.910;2023-05-27T05:57:58;10.80;99.90
22629;DHT22;11481;53.694;9.910;2023-05-27T06:00:25;11.00;99.90
22629;DHT22;11481;53.694;9.910;2023-05-27T06:02:51;11.00;99.90
22629;DHT22;11481;53.694;9.910;2023-05-27T06:05:18;11.00;99.90
22629;DHT22;11481;53.694;9.910;2023-05-27T06:07:45;11.10;99.90
22629;DHT22;11481;53.694;9.910;2023-05-27T06:10:13;11.20;99.90
22629;DHT22;11481;53.694;9.910;2023-05-27T06:12:40;11.30;99.90
22629;DHT22;11481;53.694;9.910;2023-05-27T06:15:07;11.40;99.90
22629;DHT22;11481;53.694;9.910;2023-05-27T06:17:35;11.60;99.90
22629;DHT22;11481;53.694;9.910;2023-05-27T06:20:02;11.70;99.90
22629;DHT22;11481;53.694;9.910;2023-05-27T06:22:30;11.70;99.90
22629;DHT22;11481;53.694;9.910;2023-05-27T06:24:56;11.80;99.90
22629;DHT22;11481;53.694;9.910;2023-05-27T06:27:23;11.90;99.90
22629;DHT22;11481;53.694;9.910;2023-05-27T06:29:50;12.10;99.90
22629;DHT22;11481;53.694;9.910;2023-05-27T06:32:17;12.10;99.90
22629;DHT22;11481;53.694;9.910;2023-05-27T06:34:43;12.20;99.90
22629;DHT22;11481;53.694;9.910;2023-05-27T06:37:10;12.30;99.90
22629;DHT22;11481;53.694;9.910;2023-05-27T06:39:37;12.40;99.90
22629;DHT22;11481;53.694;9.910;2023-05-27T06:42:03;12.50;99.90
22629;DHT22;11481;53.694;9.910;2023-05-27T06:44:30;12.60;99.90
22629;DHT22;11481;53.694;9.910;2023-05-27T06:46:57;12.70;99.90
22629;DHT22;11481;53.694;9.910;2023-05-27T06:49:24;12.60;99.90
22629;DHT22;11481;53.694;9.910;2023-05-27T06:51:50;12.70;99.90
22629;DHT22;11481;53.694;9.910;2023-05-27T06:54:17;12.80;99.90
22629;DHT22;11481;53.694;9.910;2023-05-27T06:56:44;12.80;99.90
22629;DHT22;11481;53.694;9.910;2023-05-27T06:59:10;12.90;99.90
22629;DHT22;11481;53.694;9.910;2023-05-27T07:01:37;13.10;99.90
22629;DHT22;11481;53.694;9.910;2023-05-27T07:04:04;13.10;99.90
22629;DHT22;11481;53.694;9.910;2023-05-27T07:06:30;13.40;99.90
22629;DHT22;11481;53.694;9.910;2023-05-27T07:08:57;13.40;99.90
22629;DHT22;11481;53.694;9.910;2023-05-27T07:11:24;13.60;99.90
22629;DHT22;11481;53.694;9.910;2023-05-27T07:13:52;13.70;99.90
22629;DHT22;11481;53.694;9.910;2023-05-27T07:16:19;13.80;99.90
22629;DHT22;11481;53.694;9.910;2023-05-27T07:18:46;13.80;99.90
22629;DHT22;11481;53.694;9.910;2023-05-27T07:21:13;13.90;99.90
22629;DHT22;11481;53.694;9.910;2023-05-27T07:23:39;14.00;99.90
22629;DHT22;11481;53.694;9.910;2023-05-27T07:26:06;14.10;99.90
22629;DHT22;11481;53.694;9.910;2023-05-27T07:28:32;14.20;99.90
22629;DHT22;11481;53.694;9.910;2023-05-27T07:30:59;14.20;99.90
22629;DHT22;11481;53.694;9.910;2023-05-27T07:33:26;14.30;99.90
22629;DHT22;11481;53.694;9.910;2023-05-27T07:35:53;14.40;99.90
22629;DHT22;11481;53.694;9.910;2023-05-27T07:38:19;14.60;99.90
22629;DHT22;11481;53.694;9.910;2023-05-27T07:40:46;14.70;99.90
22629;DHT22;11481;53.694;9.910;2023-05-27T07:43:13;14.80;99.90
22629;DHT22;11481;53.694;9.910;2023-05-27T07:45:40;14.80;99.90
22629;DHT22;11481;53.694;9.910;2023-05-27T07:48:06;14.90;99.90
22629;DHT22;11481;53.694;9.910;2023-05-27T07:50:33;15.00;99.90
22629;DHT22;11481;53.694;9.910;2023-05-27T07:53:00;15.10;99.90
22629;DHT22;11481;53.694;9.910;2023-05-27T07:55:26;15.30;99.90
22629;DHT22;11481;53.694;9.910;2023-05-27T07:57:56;15.40;99.90
22629;DHT22;11481;53.694;9.910;2023-05-27T08:00:24;15.50;99.90
22629;DHT22;11481;53.694;9.910;2023-05-27T08:02:51;15.60;99.90
22629;DHT22;11481;53.694;9.910;2023-05-27T08:05:17;15.50;99.90
22629;DHT22;11481;53.694;9.910;2023-05-27T08:07:44;15.60;99.90
22629;DHT22;11481;53.694;9.910;2023-05-27T08:10:12;15.60;99.90
22629;DHT22;11481;53.694;9.910;2023-05-27T08:12:38;15.60;99.90
22629;DHT22;11481;53.694;9.910;2023-05-27T08:15:06;15.70;99.90
22629;DHT22;11481;53.694;9.910;2023-05-27T08:17:32;15.70;99.90
22629;DHT22;11481;53.694;9.910;2023-05-27T08:19:59;15.70;99.90
22629;DHT22;11481;53.694;9.910;2023-05-27T08:22:26;15.60;99.90
22629;DHT22;11481;53.694;9.910;2023-05-27T08:24:53;15.70;99.90
22629;DHT22;11481;53.694;9.910;2023-05-27T08:27:42;15.80;99.90
22629;DHT22;11481;53.694;9.910;2023-05-27T08:30:13;15.90;99.90
22629;DHT22;11481;53.694;9.910;2023-05-27T08:32:41;15.80;99.90
22629;DHT22;11481;53.694;9.910;2023-05-27T08:35:09;15.90;99.90
22629;DHT22;11481;53.694;9.910;2023-05-27T08:37:39;16.00;99.90
22629;DHT22;11481;53.694;9.910;2023-05-27T08:40:09;16.10;99.90
22629;DHT22;11481;53.694;9.910;2023-05-27T08:42:36;16.20;99.90
22629;DHT22;11481;53.694;9.910;2023-05-27T08:45:03;16.30;99.90
22629;DHT22;11481;53.694;9.910;2023-05-27T08:47:30;16.30;99.90
22629;DHT22;11481;53.694;9.910;2023-05-27T08:49:57;16.40;99.90
22629;DHT22;11481;53.694;9.910;2023-05-27T08:52:28;16.50;99.90
22629;DHT22;11481;53.694;9.910;2023-05-27T08:54:56;16.50;99.90
22629;DHT22;11481;53.694;9.910;2023-05-27T08:57:28;16.60;99.90
22629;DHT22;11481;53.694;9.910;2023-05-27T08:59:56;16.80;99.90
22629;DHT22;11481;53.694;9.910;2023-05-27T09:02:23;16.70;99.90
22629;DHT22;11481;53.694;9.910;2023-05-27T09:04:51;16.80;99.90
22629;DHT22;11481;53.694;9.910;2023-05-27T09:07:20;16.90;99.90
22629;DHT22;11481;53.694;9.910;2023-05-27T09:09:56;17.00;99.90
22629;DHT22;11481;53.694;9.910;2023-05-27T09:12:25;16.90;99.90
22629;DHT22;11481;53.694;9.910;2023-05-27T09:14:52;17.00;99.90
22629;DHT22;11481;53.694;9.910;2023-05-27T09:17:22;17.10;99.90
22629;DHT22;11481;53.694;9.910;2023-05-27T09:19:53;17.00;99.90
22629;DHT22;11481;53.694;9.910;2023-05-27T09:22:29;17.10;99.90
22629;DHT22;11481;53.694;9.910;2023-05-27T09:24:56;17.20;99.90
22629;DHT22;11481;53.694;9.910;2023-05-27T09:27:27;17.20;99.90
22629;DHT22;11481;53.694;9.910;2023-05-27T09:29:55;17.10;99.90
22629;DHT22;11481;53.694;9.910;2023-05-27T09:32:30;17.30;99.90
22629;DHT22;11481;53.694;9.910;2023-05-27T09:34:58;17.10;99.90
22629;DHT22;11481;53.694;9.910;2023-05-27T09:37:26;17.10;99.90
22629;DHT22;11481;53.694;9.910;2023-05-27T09:39:59;17.00;99.90
22629;DHT22;11481;53.694;9.910;2023-05-27T09:42:26;17.10;99.90
22629;DHT22;11481;53.694;9.910;2023-05-27T09:44:54;17.10;99.90
22629;DHT22;11481;53.694;9.910;2023-05-27T09:47:21;17.20;99.90
22629;DHT22;11481;53.694;9.910;2023-05-27T09:49:52;17.50;99.90
22629;DHT22;11481;53.694;9.910;2023-05-27T09:52:20;17.80;99.90
22629;DHT22;11481;53.694;9.910;2023-05-27T09:54:48;18.10;99.90
22629;DHT22;11481;53.694;9.910;2023-05-27T09:57:16;18.00;99.90
22629;DHT22;11481;53.694;9.910;2023-05-27T09:59:45;18.00;99.90
22629;DHT22;11481;53.694;9.910;2023-05-27T10:02:16;18.10;99.90
22629;DHT22;11481;53.694;9.910;2023-05-27T10:04:46;18.10;99.90
22629;DHT22;11481;53.694;9.910;2023-05-27T10:07:17;18.20;99.90
22629;DHT22;11481;53.694;9.910;2023-05-27T10:09:53;18.30;99.90
22629;DHT22;11481;53.694;9.910;2023-05-27T10:12:21;18.40;99.90
22629;DHT22;11481;53.694;9.910;2023-05-27T10:14:48;18.70;99.90
22629;DHT22;11481;53.694;9.910;2023-05-27T10:17:17;18.80;99.90
22629;DHT22;11481;53.694;9.910;2023-05-27T10:19:56;19.00;99.90
22629;DHT22;11481;53.694;9.910;2023-05-27T10:22:23;19.20;99.90
22629;DHT22;11481;53.694;9.910;2023-05-27T10:24:50;19.30;99.90
22629;DHT22;11481;53.694;9.910;2023-05-27T10:27:19;19.20;99.90
22629;DHT22;11481;53.694;9.910;2023-05-27T10:29:57;19.20;99.90
22629;DHT22;11481;53.694;9.910;2023-05-27T10:32:24;19.10;99.90
22629;DHT22;11481;53.694;9.910;2023-05-27T10:34:50;19.00;99.90
22629;DHT22;11481;53.694;9.910;2023-05-27T10:37:19;19.00;99.90
22629;DHT22;11481;53.694;9.910;2023-05-27T10:39:55;18.90;99.90
22629;DHT22;11481;53.694;9.910;2023-05-27T10:42:22;18.70;99.90
22629;DHT22;11481;53.694;9.910;2023-05-27T10:45:03;18.40;99.90
22629;DHT22;11481;53.694;9.910;2023-05-27T10:47:33;18.40;99.90
22629;DHT22;11481;53.694;9.910;2023-05-27T10:50:10;18.50;99.90
22629;DHT22;11481;53.694;9.910;2023-05-27T10:52:39;18.50;99.90
22629;DHT22;11481;53.694;9.910;2023-05-27T10:55:06;18.70;99.90
22629;DHT22;11481;53.694;9.910;2023-05-27T10:57:34;18.90;99.90
22629;DHT22;11481;53.694;9.910;2023-05-27T11:00:03;19.30;99.90
22629;DHT22;11481;53.694;9.910;2023-05-27T11:02:38;19.60;99.90
22629;DHT22;11481;53.694;9.910;2023-05-27T11:05:14;20.10;99.90
22629;DHT22;11481;53.694;9.910;2023-05-27T11:07:41;20.30;99.90
22629;DHT22;11481;53.694;9.910;2023-05-27T11:10:08;20.50;99.90
22629;DHT22;11481;53.694;9.910;2023-05-27T11:12:35;20.70;99.90
22629;DHT22;11481;53.694;9.910;2023-05-27T11:15:03;20.90;99.90
22629;DHT22;11481;53.694;9.910;2023-05-27T11:17:30;21.00;99.90
22629;DHT22;11481;53.694;9.910;2023-05-27T11:19:56;21.00;99.90
22629;DHT22;11481;53.694;9.910;2023-05-27T11:22:23;20.70;99.90
22629;DHT22;11481;53.694;9.910;2023-05-27T11:24:58;20.40;99.90
22629;DHT22;11481;53.694;9.910;2023-05-27T11:27:32;20.00;99.90
22629;DHT22;11481;53.694;9.910;2023-05-27T11:29:59;19.90;99.90
22629;DHT22;11481;53.694;9.910;2023-05-27T11:32:26;20.20;99.90
22629;DHT22;11481;53.694;9.910;2023-05-27T11:34:55;20.40;99.90
22629;DHT22;11481;53.694;9.910;2023-05-27T11:37:22;20.60;99.90
22629;DHT22;11481;53.694;9.910;2023-05-27T11:39:52;20.80;99.90
22629;DHT22;11481;53.694;9.910;2023-05-27T11:42:23;20.70;99.90
22629;DHT22;11481;53.694;9.910;2023-05-27T11:44:52;20.60;99.90
22629;DHT22;11481;53.694;9.910;2023-05-27T11:47:20;20.00;99.90
22629;DHT22;11481;53.694;9.910;2023-05-27T11:49:48;20.00;99.90
22629;DHT22;11481;53.694;9.910;2023-05-27T11:52:15;20.10;99.90
22629;DHT22;11481;53.694;9.910;2023-05-27T11:54:42;19.90;99.90
22629;DHT22;11481;53.694;9.910;2023-05-27T11:57:19;19.90;99.90
22629;DHT22;11481;53.694;9.910;2023-05-27T11:59:46;19.90;99.90
22629;DHT22;11481;53.694;9.910;2023-05-27T12:02:13;20.00;99.90
22629;DHT22;11481;53.694;9.910;2023-05-27T12:04:39;19.90;99.90
22629;DHT22;11481;53.694;9.910;2023-05-27T12:07:06;20.10;99.90
22629;DHT22;11481;53.694;9.910;2023-05-27T12:09:45;20.30;99.90
22629;DHT22;11481;53.694;9.910;2023-05-27T12:12:14;20.70;99.90
22629;DHT22;11481;53.694;9.910;2023-05-27T12:14:41;21.10;99.90
22629;DHT22;11481;53.694;9.910;2023-05-27T12:17:08;21.20;99.90
22629;DHT22;11481;53.694;9.910;2023-05-27T12:19:34;20.90;99.90
22629;DHT22;11481;53.694;9.910;2023-05-27T12:22:01;20.90;99.90
22629;DHT22;11481;53.694;9.910;2023-05-27T12:24:28;21.20;99.90
22629;DHT22;11481;53.694;9.910;2023-05-27T12:26:55;21.40;99.90
22629;DHT22;11481;53.694;9.910;2023-05-27T12:29:21;21.10;99.90
22629;DHT22;11481;53.694;9.910;2023-05-27T12:31:50;21.00;99.90
22629;DHT22;11481;53.694;9.910;2023-05-27T12:34:18;21.20;99.90
22629;DHT22;11481;53.694;9.910;2023-05-27T12:36:47;20.90;99.90
22629;DHT22;11481;53.694;9.910;2023-05-27T12:39:14;20.90;99.90
22629;DHT22;11481;53.694;9.910;2023-05-27T12:41:41;21.00;99.90
22629;DHT22;11481;53.694;9.910;2023-05-27T12:44:09;21.40;99.90
22629;DHT22;11481;53.694;9.910;2023-05-27T12:46:36;21.80;99.90
22629;DHT22;11481;53.694;9.910;2023-05-27T12:49:04;21.70;99.90
22629;DHT22;11481;53.694;9.910;2023-05-27T12:51:32;21.60;99.90
22629;DHT22;11481;53.694;9.910;2023-05-27T12:53:59;22.00;99.90
22629;DHT22;11481;53.694;9.910;2023-05-27T12:56:26;22.10;99.90
22629;DHT22;11481;53.694;9.910;2023-05-27T12:58:53;22.30;99.90
22629;DHT22;11481;53.694;9.910;2023-05-27T13:01:19;22.70;99.90
22629;DHT22;11481;53.694;9.910;2023-05-27T13:03:46;22.90;99.90
22629;DHT22;11481;53.694;9.910;2023-05-27T13:06:13;22.80;99.90
22629;DHT22;11481;53.694;9.910;2023-05-27T13:08:39;22.90;99.90
22629;DHT22;11481;53.694;9.910;2023-05-27T13:11:06;23.10;99.90
22629;DHT22;11481;53.694;9.910;2023-05-27T13:13:34;23.00;99.90
22629;DHT22;11481;53.694;9.910;2023-05-27T13:16:00;22.60;99.90
22629;DHT22;11481;53.694;9.910;2023-05-27T13:18:27;22.70;99.90
22629;DHT22;11481;53.694;9.910;2023-05-27T13:20:54;22.60;99.90
22629;DHT22;11481;53.694;9.910;2023-05-27T13:23:21;22.70;99.90
22629;DHT22;11481;53.694;9.910;2023-05-27T13:25:48;22.30;99.90
22629;DHT22;11481;53.694;9.910;2023-05-27T13:28:15;22.50;99.90
22629;DHT22;11481;53.694;9.910;2023-05-27T13:30:43;22.70;99.90
22629;DHT22;11481;53.694;9.910;2023-05-27T13:33:10;23.10;99.90
22629;DHT22;11481;53.694;9.910;2023-05-27T13:35:37;22.40;99.90
22629;DHT22;11481;53.694;9.910;2023-05-27T13:38:03;22.30;99.90
22629;DHT22;11481;53.694;9.910;2023-05-27T13:40:32;22.80;99.90
22629;DHT22;11481;53.694;9.910;2023-05-27T13:42:59;23.40;99.90
22629;DHT22;11481;53.694;9.910;2023-05-27T13:45:27;24.00;99.90
22629;DHT22;11481;53.694;9.910;2023-05-27T13:47:54;23.50;99.90
22629;DHT22;11481;53.694;9.910;2023-05-27T13:50:20;23.30;99.90
22629;DHT22;11481;53.694;9.910;2023-05-27T13:52:47;23.20;99.90
22629;DHT22;11481;53.694;9.910;2023-05-27T13:55:14;23.10;99.90
22629;DHT22;11481;53.694;9.910;2023-05-27T13:57:41;23.30;99.90
22629;DHT22;11481;53.694;9.910;2023-05-27T14:00:10;23.20;99.90
22629;DHT22;11481;53.694;9.910;2023-05-27T14:02:36;23.10;99.90
22629;DHT22;11481;53.694;9.910;2023-05-27T14:05:03;23.60;99.90
22629;DHT22;11481;53.694;9.910;2023-05-27T14:07:32;23.70;99.90
22629;DHT22;11481;53.694;9.910;2023-05-27T14:09:58;23.90;99.90
22629;DHT22;11481;53.694;9.910;2023-05-27T14:12:25;24.00;99.90
22629;DHT22;11481;53.694;9.910;2023-05-27T14:14:52;24.30;99.90
22629;DHT22;11481;53.694;9.910;2023-05-27T14:17:19;24.50;99.90
22629;DHT22;11481;53.694;9.910;2023-05-27T14:19:46;24.30;99.90
22629;DHT22;11481;53.694;9.910;2023-05-27T14:22:13;24.10;99.90
22629;DHT22;11481;53.694;9.910;2023-05-27T14:24:40;24.20;99.90
22629;DHT22;11481;53.694;9.910;2023-05-27T14:27:06;23.70;99.90
22629;DHT22;11481;53.694;9.910;2023-05-27T14:29:34;23.50;99.90
22629;DHT22;11481;53.694;9.910;2023-05-27T14:32:00;23.30;99.90
22629;DHT22;11481;53.694;9.910;2023-05-27T14:34:27;23.50;99.90
22629;DHT22;11481;53.694;9.910;2023-05-27T14:36:54;23.80;99.90
22629;DHT22;11481;53.694;9.910;2023-05-27T14:39:21;24.20;99.90
22629;DHT22;11481;53.694;9.910;2023-05-27T14:41:47;24.30;99.90
22629;DHT22;11481;53.694;9.910;2023-05-27T14:44:15;24.10;99.90
22629;DHT22;11481;53.694;9.910;2023-05-27T14:46:41;24.00;99.90
22629;DHT22;11481;53.694;9.910;2023-05-27T14:49:08;24.10;99.90
22629;DHT22;11481;53.694;9.910;2023-05-27T14:51:35;24.30;99.90
22629;DHT22;11481;53.694;9.910;2023-05-27T14:54:02;24.80;99.90
22629;DHT22;11481;53.694;9.910;2023-05-27T14:56:29;25.30;99.90
22629;DHT22;11481;53.694;9.910;2023-05-27T14:58:56;25.60;99.90
22629;DHT22;11481;53.694;9.910;2023-05-27T15:01:22;25.40;99.90
22629;DHT22;11481;53.694;9.910;2023-05-27T15:03:49;24.90;99.90
22629;DHT22;11481;53.694;9.910;2023-05-27T15:06:16;25.20;99.90
22629;DHT22;11481;53.694;9.910;2023-05-27T15:08:43;25.40;99.90
22629;DHT22;11481;53.694;9.910;2023-05-27T15:11:09;25.00;99.90
22629;DHT22;11481;53.694;9.910;2023-05-27T15:13:36;25.10;99.90
22629;DHT22;11481;53.694;9.910;2023-05-27T15:16:03;25.20;99.90
22629;DHT22;11481;53.694;9.910;2023-05-27T15:18:30;25.40;99.90
22629;DHT22;11481;53.694;9.910;2023-05-27T15:20:57;25.50;99.90
22629;DHT22;11481;53.694;9.910;2023-05-27T15:23:23;25.60;99.90
22629;DHT22;11481;53.694;9.910;2023-05-27T15:25:50;25.80;99.90
22629;DHT22;11481;53.694;9.910;2023-05-27T15:28:17;26.00;99.90
22629;DHT22;11481;53.694;9.910;2023-05-27T15:30:44;25.80;99.90
22629;DHT22;11481;53.694;9.910;2023-05-27T15:33:11;25.40;99.90
22629;DHT22;11481;53.694;9.910;2023-05-27T15:35:37;25.40;99.90
22629;DHT22;11481;53.694;9.910;2023-05-27T15:38:04;25.20;99.90